sensor_id;sensor_type;location;lat;lon;timestamp;pressure;altitude;pressure_sealevel;temperature;humidity
21185;BME280;18176;49.502;11.754;2023-03-04T00:00:44;97345.72;;;0.10;79.59
21185;BME280;18176;49.502;11.754;2023-03-04T00:04:45;97324.50;;;0.05;79.57
21185;BME280;18176;49.502;11.754;2023-03-04T00:08:45;97333.09;;;-0.03;80.44
21185;BME280;18176;49.502;11.754;2023-03-04T00:12:46;97343.72;;;0.04;80.23
21185;BME280;18176;49.502;11.754;2023-03-04T00:16:50;97346.06;;;-0.11;80.35
21185;BME280;18176;49.502;11.754;2023-03-04T00:20:51;97343.56;;;-0.20;81.08
21185;BME280;18176;49.502;11.754;2023-03-04T00:24:51;97348.09;;;-0.22;80.89
21185;BME280;18176;49.502;11.754;2023-03-04T00:28:52;97341.28;;;-0.23;80.90
21185;BME280;18176;49.502;11.754;2023-03-04T00:32:55;97338.56;;;-0.39;80.83
21185;BME280;18176;49.502;11.754;2023-03-04T00:36:56;97349.09;;;-0.41;80.90
21185;BME280;18176;49.502;11.754;2023-03-04T00:40:57;97334.28;;;-0.48;81.02
21185;BME280;18176;49.502;11.754;2023-03-04T00:44:58;97333.56;;;-0.50;81.87
21185;BME280;18176;49.502;11.754;2023-03-04T00:49:04;97325.72;;;-0.58;81.82
21185;BME280;18176;49.502;11.754;2023-03-04T00:53:05;97325.50;;;-0.65;82.14
21185;BME280;18176;49.502;11.754;2023-03-04T00:57:06;97326.50;;;-0.84;82.65
21185;BME280;18176;49.502;11.754;2023-03-04T01:01:07;97323.22;;;-0.86;82.83
21185;BME280;18176;49.502;11.754;2023-03-04T01:05:12;97316.75;;;-0.82;82.66
21185;BME280;18176;49.502;11.754;2023-03-04T01:09:13;97315.41;;;-0.86;82.37
21185;BME280;18176;49.502;11.754;2023-03-04T01:13:13;97312.00;;;-0.86;82.83
21185;BME280;18176;49.502;11.754;2023-03-04T01:17:14;97311.16;;;-0.87;83.04
21185;BME280;18176;49.502;11.754;2023-03-04T01:21:17;97291.03;;;-1.02;83.27
21185;BME280;18176;49.502;11.754;2023-03-04T01:25:18;97313.47;;;-1.01;83.93
21185;BME280;18176;49.502;11.754;2023-03-04T01:29:20;97316.22;;;-1.03;84.18
21185;BME280;18176;49.502;11.754;2023-03-04T01:33:20;97307.75;;;-1.05;84.45
21185;BME280;18176;49.502;11.754;2023-03-04T01:37:24;97308.59;;;-1.04;84.86
21185;BME280;18176;49.502;11.754;2023-03-04T01:41:25;97304.50;;;-1.07;85.05
21185;BME280;18176;49.502;11.754;2023-03-04T01:45:34;97308.03;;;-1.08;84.99
21185;BME280;18176;49.502;11.754;2023-03-04T01:49:38;97303.75;;;-1.17;85.38
21185;BME280;18176;49.502;11.754;2023-03-04T01:53:42;97307.88;;;-1.24;85.44
21185;BME280;18176;49.502;11.754;2023-03-04T01:57:46;97302.03;;;-1.26;85.15
21185;BME280;18176;49.502;11.754;2023-03-04T02:01:50;97296.44;;;-1.31;85.28
21185;BME280;18176;49.502;11.754;2023-03-04T02:05:53;97281.06;;;-1.42;85.85
21185;BME280;18176;49.502;11.754;2023-03-04T02:09:57;97285.00;;;-1.38;85.65
21185;BME280;18176;49.502;11.754;2023-03-04T02:14:00;97289.53;;;-1.40;85.90
21185;BME280;18176;49.502;11.754;2023-03-04T02:18:06;97291.78;;;-1.45;86.56
21185;BME280;18176;49.502;11.754;2023-03-04T02:22:14;97279.19;;;-1.50;86.49
21185;BME280;18176;49.502;11.754;2023-03-04T02:26:20;97270.06;;;-1.54;86.31
21185;BME280;18176;49.502;11.754;2023-03-04T02:30:23;97267.09;;;-1.59;87.46
21185;BME280;18176;49.502;11.754;2023-03-04T02:34:29;97254.84;;;-1.66;86.86
21185;BME280;18176;49.502;11.754;2023-03-04T02:38:30;97258.38;;;-1.67;87.00
21185;BME280;18176;49.502;11.754;2023-03-04T02:42:36;97252.84;;;-1.82;87.24
21185;BME280;18176;49.502;11.754;2023-03-04T02:46:38;97203.97;;;-2.14;87.31
21185;BME280;18176;49.502;11.754;2023-03-04T02:50:43;97245.50;;;-1.86;87.46
21185;BME280;18176;49.502;11.754;2023-03-04T02:54:45;97241.38;;;-1.79;86.87
21185;BME280;18176;49.502;11.754;2023-03-04T02:58:50;97243.97;;;-1.79;86.76
21185;BME280;18176;49.502;11.754;2023-03-04T03:02:50;97239.38;;;-1.85;86.73
21185;BME280;18176;49.502;11.754;2023-03-04T03:06:53;97231.50;;;-1.93;87.17
21185;BME280;18176;49.502;11.754;2023-03-04T03:10:55;97224.44;;;-2.01;87.13
21185;BME280;18176;49.502;11.754;2023-03-04T03:14:59;97235.63;;;-2.00;87.30
21185;BME280;18176;49.502;11.754;2023-03-04T03:19:00;97234.56;;;-2.07;87.44
21185;BME280;18176;49.502;11.754;2023-03-04T03:23:03;97236.84;;;-2.04;87.95
21185;BME280;18176;49.502;11.754;2023-03-04T03:27:05;97238.66;;;-2.05;87.72
21185;BME280;18176;49.502;11.754;2023-03-04T03:31:08;97235.25;;;-2.05;87.60
21185;BME280;18176;49.502;11.754;2023-03-04T03:35:10;97239.03;;;-2.00;88.37
21185;BME280;18176;49.502;11.754;2023-03-04T03:39:10;97233.69;;;-1.98;88.64
21185;BME280;18176;49.502;11.754;2023-03-04T03:43:12;97245.84;;;-1.99;88.30
21185;BME280;18176;49.502;11.754;2023-03-04T03:47:15;97240.81;;;-2.00;88.31
21185;BME280;18176;49.502;11.754;2023-03-04T03:51:16;97240.44;;;-2.05;88.58
21185;BME280;18176;49.502;11.754;2023-03-04T03:55:17;97242.19;;;-2.06;88.93
21185;BME280;18176;49.502;11.754;2023-03-04T03:59:17;97244.97;;;-2.07;89.58
21185;BME280;18176;49.502;11.754;2023-03-04T04:03:20;97251.50;;;-2.03;89.31
21185;BME280;18176;49.502;11.754;2023-03-04T04:07:21;97246.28;;;-2.03;89.34
21185;BME280;18176;49.502;11.754;2023-03-04T04:11:21;97246.81;;;-2.00;89.48
21185;BME280;18176;49.502;11.754;2023-03-04T04:15:22;97255.53;;;-1.91;89.63
21185;BME280;18176;49.502;11.754;2023-03-04T04:19:27;97248.41;;;-1.89;89.49
21185;BME280;18176;49.502;11.754;2023-03-04T04:23:27;97252.28;;;-1.93;89.57
21185;BME280;18176;49.502;11.754;2023-03-04T04:27:28;97256.19;;;-1.89;89.46
21185;BME280;18176;49.502;11.754;2023-03-04T04:31:28;97252.28;;;-1.93;89.57
21185;BME280;18176;49.502;11.754;2023-03-04T04:35:34;97225.47;;;-2.21;89.39
21185;BME280;18176;49.502;11.754;2023-03-04T04:39:37;97256.69;;;-2.03;89.70
21185;BME280;18176;49.502;11.754;2023-03-04T04:43:38;97272.25;;;-2.03;89.74
21185;BME280;18176;49.502;11.754;2023-03-04T04:47:39;97274.16;;;-1.96;90.51
21185;BME280;18176;49.502;11.754;2023-03-04T04:51:43;97283.53;;;-1.68;91.16
21185;BME280;18176;49.502;11.754;2023-03-04T04:55:44;97285.16;;;-1.39;90.62
21185;BME280;18176;49.502;11.754;2023-03-04T04:59:44;97288.47;;;-1.20;89.58
21185;BME280;18176;49.502;11.754;2023-03-04T05:03:45;97284.56;;;-0.98;88.48
21185;BME280;18176;49.502;11.754;2023-03-04T05:07:48;97294.53;;;-0.94;87.53
21185;BME280;18176;49.502;11.754;2023-03-04T05:11:49;97296.59;;;-0.80;86.82
21185;BME280;18176;49.502;11.754;2023-03-04T05:15:51;97288.50;;;-0.94;86.38
21185;BME280;18176;49.502;11.754;2023-03-04T05:19:53;97298.41;;;-0.98;86.69
21185;BME280;18176;49.502;11.754;2023-03-04T05:23:57;97302.41;;;-0.86;86.39
21185;BME280;18176;49.502;11.754;2023-03-04T05:27:58;97312.00;;;-0.86;86.51
21185;BME280;18176;49.502;11.754;2023-03-04T05:32:01;97303.81;;;-0.91;87.21
21185;BME280;18176;49.502;11.754;2023-03-04T05:36:05;97304.25;;;-0.78;87.07
21185;BME280;18176;49.502;11.754;2023-03-04T05:40:12;97307.75;;;-0.69;86.87
21185;BME280;18176;49.502;11.754;2023-03-04T05:44:12;97304.81;;;-0.66;87.08
21185;BME280;18176;49.502;11.754;2023-03-04T05:48:13;97274.16;;;-0.81;87.08
21185;BME280;18176;49.502;11.754;2023-03-04T05:52:14;97304.91;;;-0.58;87.24
21185;BME280;18176;49.502;11.754;2023-03-04T05:56:19;97297.72;;;-0.64;88.05
21185;BME280;18176;49.502;11.754;2023-03-04T06:00:20;97283.69;;;-0.72;89.07
21185;BME280;18176;49.502;11.754;2023-03-04T06:04:20;97307.78;;;-0.44;88.61
21185;BME280;18176;49.502;11.754;2023-03-04T06:08:21;97307.25;;;-0.47;88.09
21185;BME280;18176;49.502;11.754;2023-03-04T06:12:25;97311.66;;;-0.22;87.25
21185;BME280;18176;49.502;11.754;2023-03-04T06:16:26;97308.88;;;-0.21;86.40
21185;BME280;18176;49.502;11.754;2023-03-04T06:20:27;97311.38;;;-0.11;86.46
21185;BME280;18176;49.502;11.754;2023-03-04T06:24:27;97311.75;;;-0.06;86.12
21185;BME280;18176;49.502;11.754;2023-03-04T06:28:30;97317.34;;;0.07;85.75
21185;BME280;18176;49.502;11.754;2023-03-04T06:32:31;97318.41;;;0.22;85.60
21185;BME280;18176;49.502;11.754;2023-03-04T06:36:32;97320.38;;;0.28;84.98
21185;BME280;18176;49.502;11.754;2023-03-04T06:40:32;97329.22;;;0.35;84.52
21185;BME280;18176;49.502;11.754;2023-03-04T06:44:36;97334.47;;;0.43;84.44
21185;BME280;18176;49.502;11.754;2023-03-04T06:48:37;97337.63;;;0.55;83.97
21185;BME280;18176;49.502;11.754;2023-03-04T06:52:38;97338.28;;;0.65;83.82
21185;BME280;18176;49.502;11.754;2023-03-04T06:56:42;97343.38;;;0.66;83.05
21185;BME280;18176;49.502;11.754;2023-03-04T07:00:45;97346.69;;;0.85;82.80
21185;BME280;18176;49.502;11.754;2023-03-04T07:04:46;97352.25;;;0.90;82.23
21185;BME280;18176;49.502;11.754;2023-03-04T07:08:46;97340.16;;;0.81;82.55
21185;BME280;18176;49.502;11.754;2023-03-04T07:12:47;97337.84;;;0.86;82.13
21185;BME280;18176;49.502;11.754;2023-03-04T07:16:50;97352.41;;;0.96;81.82
21185;BME280;18176;49.502;11.754;2023-03-04T07:20:51;97355.84;;;0.97;81.81
21185;BME280;18176;49.502;11.754;2023-03-04T07:24:52;97358.16;;;1.16;81.74
21185;BME280;18176;49.502;11.754;2023-03-04T07:28:53;97360.75;;;1.16;81.01
21185;BME280;18176;49.502;11.754;2023-03-04T07:32:59;97367.31;;;1.28;80.25
21185;BME280;18176;49.502;11.754;2023-03-04T07:37:00;97366.16;;;1.30;80.18
21185;BME280;18176;49.502;11.754;2023-03-04T07:41:01;97369.59;;;1.39;80.25
21185;BME280;18176;49.502;11.754;2023-03-04T07:45:04;97381.34;;;1.43;79.26
21185;BME280;18176;49.502;11.754;2023-03-04T07:49:10;97376.44;;;1.32;79.18
21185;BME280;18176;49.502;11.754;2023-03-04T07:53:10;97375.78;;;1.30;79.81
21185;BME280;18176;49.502;11.754;2023-03-04T07:57:11;97372.38;;;1.37;79.18
21185;BME280;18176;49.502;11.754;2023-03-04T08:01:14;97369.13;;;1.52;78.89
21185;BME280;18176;49.502;11.754;2023-03-04T08:05:18;97374.50;;;1.42;78.87
21185;BME280;18176;49.502;11.754;2023-03-04T08:09:19;97373.88;;;1.56;78.62
21185;BME280;18176;49.502;11.754;2023-03-04T08:13:20;97361.13;;;1.53;77.92
21185;BME280;18176;49.502;11.754;2023-03-04T08:17:22;97373.22;;;1.54;77.65
21185;BME280;18176;49.502;11.754;2023-03-04T08:21:27;97363.25;;;1.66;77.90
21185;BME280;18176;49.502;11.754;2023-03-04T08:25:28;97346.91;;;1.64;77.33
21185;BME280;18176;49.502;11.754;2023-03-04T08:29:29;97364.69;;;1.68;77.56
21185;BME280;18176;49.502;11.754;2023-03-04T08:33:30;97361.78;;;1.63;77.37
21185;BME280;18176;49.502;11.754;2023-03-04T08:37:34;97362.09;;;1.92;76.69
21185;BME280;18176;49.502;11.754;2023-03-04T08:41:35;97367.00;;;1.87;76.63
21185;BME280;18176;49.502;11.754;2023-03-04T08:45:36;97361.25;;;1.92;76.04
21185;BME280;18176;49.502;11.754;2023-03-04T08:49:37;97358.47;;;2.09;75.05
21185;BME280;18176;49.502;11.754;2023-03-04T08:53:40;97363.31;;;2.29;74.92
21185;BME280;18176;49.502;11.754;2023-03-04T08:57:41;97364.72;;;2.55;73.50
21185;BME280;18176;49.502;11.754;2023-03-04T09:01:42;97363.28;;;2.45;73.10
21185;BME280;18176;49.502;11.754;2023-03-04T09:05:44;97366.53;;;2.47;73.06
21185;BME280;18176;49.502;11.754;2023-03-04T09:09:48;97367.41;;;2.78;72.99
21185;BME280;18176;49.502;11.754;2023-03-04T09:13:49;97366.00;;;2.98;72.93
21185;BME280;18176;49.502;11.754;2023-03-04T09:17:50;97366.84;;;2.60;72.08
21185;BME280;18176;49.502;11.754;2023-03-04T09:21:50;97372.59;;;2.86;71.57
21185;BME280;18176;49.502;11.754;2023-03-04T09:25:54;97374.56;;;2.84;71.43
21185;BME280;18176;49.502;11.754;2023-03-04T09:29:56;97374.56;;;2.84;70.98
21185;BME280;18176;49.502;11.754;2023-03-04T09:33:59;97373.69;;;2.61;71.48
21185;BME280;18176;49.502;11.754;2023-03-04T09:38:00;97381.66;;;2.67;71.40
21185;BME280;18176;49.502;11.754;2023-03-04T09:42:06;97375.69;;;2.90;71.06
21185;BME280;18176;49.502;11.754;2023-03-04T09:46:12;97381.81;;;3.05;69.72
21185;BME280;18176;49.502;11.754;2023-03-04T09:50:17;97381.81;;;3.05;69.55
21185;BME280;18176;49.502;11.754;2023-03-04T09:54:48;97381.53;;;3.30;68.86
21185;BME280;18176;49.502;11.754;2023-03-04T09:59:08;97373.97;;;3.35;68.71
21185;BME280;18176;49.502;11.754;2023-03-04T10:03:18;97379.78;;;3.45;68.40
21185;BME280;18176;49.502;11.754;2023-03-04T10:07:27;97356.28;;;3.37;68.31
21185;BME280;18176;49.502;11.754;2023-03-04T10:11:36;97362.69;;;3.04;70.34
21185;BME280;18176;49.502;11.754;2023-03-04T10:15:44;97353.88;;;2.97;69.75
21185;BME280;18176;49.502;11.754;2023-03-04T10:19:54;97372.47;;;3.10;71.16
21185;BME280;18176;49.502;11.754;2023-03-04T10:23:59;97382.22;;;2.85;71.16
21185;BME280;18176;49.502;11.754;2023-03-04T10:28:04;97367.84;;;2.51;74.26
21185;BME280;18176;49.502;11.754;2023-03-04T10:32:11;97368.66;;;2.90;73.27
21185;BME280;18176;49.502;11.754;2023-03-04T10:36:37;97356.16;;;3.00;72.79
21185;BME280;18176;49.502;11.754;2023-03-04T10:40:41;97359.47;;;2.94;72.42
21185;BME280;18176;49.502;11.754;2023-03-04T10:44:53;97362.00;;;3.10;72.58
21185;BME280;18176;49.502;11.754;2023-03-04T10:48:57;97362.31;;;3.15;71.79
21185;BME280;18176;49.502;11.754;2023-03-04T10:52:58;97360.56;;;3.30;70.98
21185;BME280;18176;49.502;11.754;2023-03-04T10:57:03;97354.59;;;3.44;68.70
21185;BME280;18176;49.502;11.754;2023-03-04T11:01:05;97352.31;;;3.41;68.27
21185;BME280;18176;49.502;11.754;2023-03-04T11:05:18;97347.88;;;3.65;67.02
21185;BME280;18176;49.502;11.754;2023-03-04T11:09:23;97356.22;;;3.83;66.31
21185;BME280;18176;49.502;11.754;2023-03-04T11:13:25;97352.28;;;3.64;67.73
21185;BME280;18176;49.502;11.754;2023-03-04T11:17:28;97354.97;;;3.79;68.45
21185;BME280;18176;49.502;11.754;2023-03-04T11:21:41;97349.97;;;3.24;69.01
21185;BME280;18176;49.502;11.754;2023-03-04T11:25:47;97337.38;;;2.97;70.87
21185;BME280;18176;49.502;11.754;2023-03-04T11:29:54;97344.16;;;3.36;70.53
21185;BME280;18176;49.502;11.754;2023-03-04T11:34:03;97344.84;;;3.30;70.70
21185;BME280;18176;49.502;11.754;2023-03-04T11:38:19;97338.22;;;3.42;70.82
21185;BME280;18176;49.502;11.754;2023-03-04T11:42:32;97338.56;;;3.39;70.46
21185;BME280;18176;49.502;11.754;2023-03-04T11:46:54;97336.53;;;3.49;70.08
21185;BME280;18176;49.502;11.754;2023-03-04T11:51:00;97328.38;;;3.44;70.81
21185;BME280;18176;49.502;11.754;2023-03-04T11:55:30;97322.63;;;3.26;70.35
21185;BME280;18176;49.502;11.754;2023-03-04T11:59:52;97316.34;;;3.35;69.99
21185;BME280;18176;49.502;11.754;2023-03-04T12:08:59;97313.16;;;3.63;69.33
21185;BME280;18176;49.502;11.754;2023-03-04T12:13:34;97309.81;;;3.54;69.20
21185;BME280;18176;49.502;11.754;2023-03-04T12:18:04;97296.25;;;3.50;69.02
21185;BME280;18176;49.502;11.754;2023-03-04T12:22:29;97276.69;;;3.76;67.49
21185;BME280;18176;49.502;11.754;2023-03-04T12:26:37;97276.19;;;3.20;68.94
21185;BME280;18176;49.502;11.754;2023-03-04T12:31:03;97292.31;;;3.54;68.68
21185;BME280;18176;49.502;11.754;2023-03-04T12:35:38;97280.09;;;3.62;68.33
21185;BME280;18176;49.502;11.754;2023-03-04T12:40:00;97274.06;;;3.61;68.88
21185;BME280;18176;49.502;11.754;2023-03-04T12:44:14;97271.97;;;3.57;68.59
21185;BME280;18176;49.502;11.754;2023-03-04T12:48:29;97274.41;;;3.58;68.98
21185;BME280;18176;49.502;11.754;2023-03-04T12:52:43;97269.50;;;3.55;68.83
21185;BME280;18176;49.502;11.754;2023-03-04T12:56:53;97275.00;;;3.45;69.06
21185;BME280;18176;49.502;11.754;2023-03-04T13:01:05;97265.28;;;3.69;68.72
21185;BME280;18176;49.502;11.754;2023-03-04T13:05:58;97257.28;;;3.70;68.54
21185;BME280;18176;49.502;11.754;2023-03-04T13:10:10;97253.09;;;3.61;69.02
21185;BME280;18176;49.502;11.754;2023-03-04T13:14:28;97247.25;;;3.88;67.81
21185;BME280;18176;49.502;11.754;2023-03-04T13:18:34;97248.94;;;3.67;68.41
21185;BME280;18176;49.502;11.754;2023-03-04T13:22:49;97239.19;;;3.90;67.19
21185;BME280;18176;49.502;11.754;2023-03-04T13:26:51;97243.97;;;3.72;67.80
21185;BME280;18176;49.502;11.754;2023-03-04T13:31:20;97247.28;;;3.51;68.25
21185;BME280;18176;49.502;11.754;2023-03-04T13:35:49;97222.66;;;3.75;67.48
21185;BME280;18176;49.502;11.754;2023-03-04T13:40:32;97242.06;;;3.80;67.94
21185;BME280;18176;49.502;11.754;2023-03-04T13:45:00;97234.75;;;3.76;68.35
21185;BME280;18176;49.502;11.754;2023-03-04T13:49:03;97231.31;;;3.61;68.36
21185;BME280;18176;49.502;11.754;2023-03-04T13:53:43;97229.69;;;3.60;68.69
21185;BME280;18176;49.502;11.754;2023-03-04T13:57:51;97232.75;;;3.78;68.58
21185;BME280;18176;49.502;11.754;2023-03-04T14:02:10;97233.97;;;3.75;68.69
21185;BME280;18176;49.502;11.754;2023-03-04T14:06:18;97222.72;;;3.67;69.58
21185;BME280;18176;49.502;11.754;2023-03-04T14:10:22;97224.66;;;4.02;67.43
21185;BME280;18176;49.502;11.754;2023-03-04T14:14:29;97220.50;;;3.93;67.60
21185;BME280;18176;49.502;11.754;2023-03-04T14:18:33;97213.63;;;4.21;66.86
21185;BME280;18176;49.502;11.754;2023-03-04T14:22:39;97213.63;;;3.92;67.21
21185;BME280;18176;49.502;11.754;2023-03-04T14:26:41;97200.41;;;3.56;68.42
21185;BME280;18176;49.502;11.754;2023-03-04T14:30:51;97204.41;;;3.96;67.75
21185;BME280;18176;49.502;11.754;2023-03-04T14:34:57;97198.63;;;3.86;67.17
21185;BME280;18176;49.502;11.754;2023-03-04T14:39:02;97200.34;;;3.93;67.56
21185;BME280;18176;49.502;11.754;2023-03-04T14:43:09;97190.84;;;4.07;66.75
21185;BME280;18176;49.502;11.754;2023-03-04T14:47:23;97190.44;;;4.10;66.66
21185;BME280;18176;49.502;11.754;2023-03-04T14:51:32;97179.28;;;3.87;67.63
21185;BME280;18176;49.502;11.754;2023-03-04T14:55:36;97189.47;;;3.96;67.78
21185;BME280;18176;49.502;11.754;2023-03-04T14:59:37;97186.25;;;3.65;68.51
21185;BME280;18176;49.502;11.754;2023-03-04T15:03:42;97188.56;;;3.60;68.79
21185;BME280;18176;49.502;11.754;2023-03-04T15:07:51;97189.06;;;3.64;68.88
21185;BME280;18176;49.502;11.754;2023-03-04T15:12:00;97181.25;;;3.55;68.68
21185;BME280;18176;49.502;11.754;2023-03-04T15:16:02;97173.50;;;3.47;69.42
21185;BME280;18176;49.502;11.754;2023-03-04T15:20:24;97171.50;;;3.49;69.15
21185;BME280;18176;49.502;11.754;2023-03-04T15:24:25;97174.56;;;3.38;69.18
21185;BME280;18176;49.502;11.754;2023-03-04T15:28:33;97174.28;;;3.33;69.56
21185;BME280;18176;49.502;11.754;2023-03-04T15:32:34;97172.59;;;3.40;69.68
21185;BME280;18176;49.502;11.754;2023-03-04T15:36:38;97176.38;;;3.52;69.31
21185;BME280;18176;49.502;11.754;2023-03-04T15:40:41;97168.69;;;3.51;69.40
21185;BME280;18176;49.502;11.754;2023-03-04T15:44:43;97170.22;;;3.45;69.24
21185;BME280;18176;49.502;11.754;2023-03-04T15:48:44;97173.28;;;3.34;69.71
21185;BME280;18176;49.502;11.754;2023-03-04T15:52:48;97161.38;;;3.46;69.60
21185;BME280;18176;49.502;11.754;2023-03-04T15:56:49;97164.91;;;3.53;68.66
21185;BME280;18176;49.502;11.754;2023-03-04T16:00:50;97166.72;;;3.53;69.14
21185;BME280;18176;49.502;11.754;2023-03-04T16:04:50;97166.63;;;3.46;70.04
21185;BME280;18176;49.502;11.754;2023-03-04T16:08:54;97154.50;;;3.45;69.73
21185;BME280;18176;49.502;11.754;2023-03-04T16:12:56;97161.31;;;3.54;70.29
21185;BME280;18176;49.502;11.754;2023-03-04T16:16:57;97151.19;;;3.51;69.99
21185;BME280;18176;49.502;11.754;2023-03-04T16:20:59;97149.72;;;3.34;70.17
21185;BME280;18176;49.502;11.754;2023-03-04T16:25:07;97150.00;;;3.39;70.27
21185;BME280;18176;49.502;11.754;2023-03-04T16:29:09;97135.72;;;3.27;70.61
21185;BME280;18176;49.502;11.754;2023-03-04T16:33:13;97157.28;;;3.15;71.78
21185;BME280;18176;49.502;11.754;2023-03-04T16:37:18;97149.25;;;3.16;72.16
21185;BME280;18176;49.502;11.754;2023-03-04T16:41:27;97145.66;;;3.32;71.99
21185;BME280;18176;49.502;11.754;2023-03-04T16:45:28;97143.84;;;3.32;72.21
21185;BME280;18176;49.502;11.754;2023-03-04T16:49:29;97120.53;;;3.08;72.75
21185;BME280;18176;49.502;11.754;2023-03-04T16:53:33;97156.66;;;3.27;73.08
21185;BME280;18176;49.502;11.754;2023-03-04T16:57:36;97157.38;;;3.21;73.85
21185;BME280;18176;49.502;11.754;2023-03-04T17:01:37;97154.41;;;3.24;73.73
21185;BME280;18176;49.502;11.754;2023-03-04T17:05:38;97145.47;;;3.33;73.78
21185;BME280;18176;49.502;11.754;2023-03-04T17:09:39;97162.63;;;3.21;74.46
21185;BME280;18176;49.502;11.754;2023-03-04T17:13:43;97164.03;;;3.09;75.24
21185;BME280;18176;49.502;11.754;2023-03-04T17:17:44;97166.72;;;3.01;76.10
21185;BME280;18176;49.502;11.754;2023-03-04T17:21:45;97130.53;;;2.90;75.82
21185;BME280;18176;49.502;11.754;2023-03-04T17:25:53;97161.34;;;3.17;75.73
21185;BME280;18176;49.502;11.754;2023-03-04T17:29:57;97162.41;;;3.08;76.37
21185;BME280;18176;49.502;11.754;2023-03-04T17:33:57;97158.72;;;3.17;76.01
21185;BME280;18176;49.502;11.754;2023-03-04T17:37:58;97170.47;;;3.21;76.13
21185;BME280;18176;49.502;11.754;2023-03-04T17:41:58;97164.94;;;3.16;76.56
21185;BME280;18176;49.502;11.754;2023-03-04T17:46:08;97151.03;;;3.01;76.51
21185;BME280;18176;49.502;11.754;2023-03-04T17:50:11;97166.94;;;3.14;76.66
21185;BME280;18176;49.502;11.754;2023-03-04T17:54:12;97166.94;;;3.14;76.62
21185;BME280;18176;49.502;11.754;2023-03-04T17:58:12;97161.13;;;3.04;77.09
21185;BME280;18176;49.502;11.754;2023-03-04T18:02:16;97163.59;;;3.06;77.23
21185;BME280;18176;49.502;11.754;2023-03-04T18:06:17;97156.38;;;3.08;77.12
21185;BME280;18176;49.502;11.754;2023-03-04T18:10:19;97164.03;;;3.09;77.07
21185;BME280;18176;49.502;11.754;2023-03-04T18:14:20;97154.09;;;3.05;77.46
21185;BME280;18176;49.502;11.754;2023-03-04T18:18:23;97155.44;;;3.01;77.46
21185;BME280;18176;49.502;11.754;2023-03-04T18:22:23;97146.97;;;3.13;76.99
21185;BME280;18176;49.502;11.754;2023-03-04T18:26:25;97153.81;;;3.00;77.36
21185;BME280;18176;49.502;11.754;2023-03-04T18:30:25;97149.38;;;3.00;77.69
21185;BME280;18176;49.502;11.754;2023-03-04T18:34:29;97146.72;;;3.08;77.23
21185;BME280;18176;49.502;11.754;2023-03-04T18:38:29;97136.78;;;3.04;77.77
21185;BME280;18176;49.502;11.754;2023-03-04T18:42:30;97137.19;;;2.93;78.28
21185;BME280;18176;49.502;11.754;2023-03-04T18:46:40;97144.97;;;3.01;78.15
21185;BME280;18176;49.502;11.754;2023-03-04T18:50:44;97146.13;;;2.98;78.14
21185;BME280;18176;49.502;11.754;2023-03-04T18:54:48;97153.88;;;2.92;78.97
21185;BME280;18176;49.502;11.754;2023-03-04T18:58:50;97149.19;;;2.87;79.46
21185;BME280;18176;49.502;11.754;2023-03-04T19:02:54;97145.50;;;2.96;78.88
21185;BME280;18176;49.502;11.754;2023-03-04T19:06:58;97144.44;;;3.05;78.65
21185;BME280;18176;49.502;11.754;2023-03-04T19:10:59;97146.13;;;2.98;78.77
21185;BME280;18176;49.502;11.754;2023-03-04T19:15:02;97146.09;;;3.06;78.85
21185;BME280;18176;49.502;11.754;2023-03-04T19:19:05;97140.28;;;2.96;78.70
21185;BME280;18176;49.502;11.754;2023-03-04T19:23:08;97132.13;;;2.91;78.94
21185;BME280;18176;49.502;11.754;2023-03-04T19:27:09;97144.72;;;3.10;78.45
21185;BME280;18176;49.502;11.754;2023-03-04T19:31:10;97135.31;;;3.01;78.47
21185;BME280;18176;49.502;11.754;2023-03-04T19:35:11;97135.63;;;3.06;78.07
21185;BME280;18176;49.502;11.754;2023-03-04T19:39:14;97131.88;;;3.01;78.20
21185;BME280;18176;49.502;11.754;2023-03-04T19:43:15;97120.94;;;2.82;78.57
21185;BME280;18176;49.502;11.754;2023-03-04T19:47:16;97133.16;;;3.05;78.17
21185;BME280;18176;49.502;11.754;2023-03-04T19:51:19;97128.19;;;3.10;77.76
21185;BME280;18176;49.502;11.754;2023-03-04T19:55:25;97125.03;;;3.14;77.70
21185;BME280;18176;49.502;11.754;2023-03-04T19:59:26;97133.88;;;2.99;78.22
21185;BME280;18176;49.502;11.754;2023-03-04T20:03:26;97131.06;;;3.00;78.08
21185;BME280;18176;49.502;11.754;2023-03-04T20:07:27;97129.81;;;2.96;78.27
21185;BME280;18176;49.502;11.754;2023-03-04T20:11:30;97135.31;;;3.01;78.20
21185;BME280;18176;49.502;11.754;2023-03-04T20:15:47;97124.56;;;2.96;78.44
21185;BME280;18176;49.502;11.754;2023-03-04T20:19:47;97128.59;;;2.84;79.15
21185;BME280;18176;49.502;11.754;2023-03-04T20:23:48;97128.16;;;2.95;78.60
21185;BME280;18176;49.502;11.754;2023-03-04T20:27:52;97130.00;;;2.95;78.69
21185;BME280;18176;49.502;11.754;2023-03-04T20:31:54;97129.94;;;2.80;79.24
21185;BME280;18176;49.502;11.754;2023-03-04T20:35:55;97119.38;;;2.88;78.52
21185;BME280;18176;49.502;11.754;2023-03-04T20:39:55;97130.09;;;3.01;78.31
21185;BME280;18176;49.502;11.754;2023-03-04T20:43:59;97123.22;;;3.00;78.43
21185;BME280;18176;49.502;11.754;2023-03-04T20:48:00;97128.53;;;3.07;78.34
21185;BME280;18176;49.502;11.754;2023-03-04T20:52:02;97131.16;;;2.92;78.89
21185;BME280;18176;49.502;11.754;2023-03-04T20:56:03;97127.75;;;3.06;78.47
21185;BME280;18176;49.502;11.754;2023-03-04T21:00:09;97125.91;;;2.92;78.35
21185;BME280;18176;49.502;11.754;2023-03-04T21:04:11;97127.75;;;3.06;78.42
21185;BME280;18176;49.502;11.754;2023-03-04T21:08:12;97117.91;;;3.08;78.42
21185;BME280;18176;49.502;11.754;2023-03-04T21:12:12;97137.03;;;3.09;78.32
21185;BME280;18176;49.502;11.754;2023-03-04T21:16:16;97129.72;;;3.04;78.76
21185;BME280;18176;49.502;11.754;2023-03-04T21:20:17;97129.09;;;3.02;79.09
21185;BME280;18176;49.502;11.754;2023-03-04T21:24:20;97131.16;;;2.92;79.83
21185;BME280;18176;49.502;11.754;2023-03-04T21:28:21;97123.56;;;2.97;79.60
21185;BME280;18176;49.502;11.754;2023-03-04T21:32:26;97124.84;;;3.01;79.35
21185;BME280;18176;49.502;11.754;2023-03-04T21:36:26;97118.63;;;3.02;79.57